Fort McMurray, Canada
Current Conditions -  °F | °C
As of 11:23 AM on Monday 22 Dec 2014 (Local Time) from CYMM Reporting Station
Haze Haze  
Wind Chill: 11°   Ceiling: 400
Heat Index: 19°   Visibility: 6mi
Dew Point: 19°   Wind: 6mph
Humidity: 100%   Direction: 250°WSW
Pressure: 29.84"   Gusts: NA
Location:  56.73°N, 111.38°W
Report Text: CYMM 221823Z AUTO 25005KT 6SM BR OVC004 M07/M07 A2984 RMK SLP132
Loading
Personal Weather Stations






























Interactive Weather Map New forecast layout! Learn more

10-Day Weather Forecast

Advertisements
Track Severe Weather on mobile